createdAt,value
2023-06-11T00:01:43.057Z,73.87
2023-06-11T00:04:27.582Z,74.12
2023-06-11T00:06:57.675Z,74.03
2023-06-11T00:09:25.541Z,74.10
2023-06-11T00:11:55.203Z,74.62
2023-06-11T00:14:24.896Z,74.68
2023-06-11T00:16:53.339Z,74.77
2023-06-11T00:19:22.389Z,74.50
2023-06-11T00:21:50.904Z,75.55
2023-06-11T00:24:18.995Z,75.48
2023-06-11T00:26:47.194Z,75.65
2023-06-11T00:29:14.978Z,75.99
2023-06-11T00:31:43.078Z,75.80
2023-06-11T00:34:11.393Z,76.42
2023-06-11T00:36:42.003Z,76.05
2023-06-11T00:39:09.846Z,76.78
2023-06-11T00:41:38.577Z,77.03
2023-06-11T00:44:07.415Z,77.01
2023-06-11T00:46:39.092Z,77.23
2023-06-11T00:49:06.978Z,77.25
2023-06-11T00:51:36.222Z,77.16
2023-06-11T00:54:04.040Z,77.75
2023-06-11T00:56:32.220Z,77.16
2023-06-11T00:59:00.949Z,77.66
2023-06-11T01:01:33.249Z,77.59
2023-06-11T01:04:02.873Z,77.00
2023-06-11T01:06:34.837Z,76.77
2023-06-11T01:09:04.429Z,77.00
2023-06-11T01:11:36.556Z,76.95
2023-06-11T01:14:08.456Z,76.42
2023-06-11T01:16:55.140Z,76.25
2023-06-11T01:20:11.294Z,75.81
2023-06-11T01:22:58.410Z,75.31
2023-06-11T01:25:38.524Z,74.79
2023-06-11T01:28:25.778Z,75.28
2023-06-11T01:30:54.258Z,75.04
2023-06-11T01:33:25.808Z,74.49
2023-06-11T01:35:59.560Z,74.21
2023-06-11T01:38:36.181Z,74.49
2023-06-11T01:41:04.982Z,74.14
2023-06-11T01:43:34.364Z,74.62
2023-06-11T01:46:04.197Z,74.53
2023-06-11T01:48:33.707Z,74.34
2023-06-11T01:51:01.574Z,74.23
2023-06-11T01:53:29.556Z,73.98
2023-06-11T01:55:58.089Z,74.85
2023-06-11T01:58:27.528Z,74.51
2023-06-11T02:00:55.300Z,74.57
2023-06-11T02:03:23.341Z,73.59
2023-06-11T02:05:51.409Z,73.80
2023-06-11T02:08:19.549Z,73.48
2023-06-11T02:10:47.525Z,73.91
2023-06-11T02:13:15.625Z,73.48
2023-06-11T02:15:43.461Z,74.02
2023-06-11T02:18:11.502Z,73.93
2023-06-11T02:20:38.825Z,72.99
2023-06-11T02:23:07.294Z,73.60
2023-06-11T02:25:35.187Z,73.74
2023-06-11T02:28:06.674Z,73.87
2023-06-11T02:30:34.573Z,72.94
2023-06-11T02:33:03.069Z,72.96
2023-06-11T02:35:32.588Z,73.44
2023-06-11T02:38:01.187Z,73.28
2023-06-11T02:40:29.026Z,73.80
2023-06-11T02:42:56.971Z,73.48
2023-06-11T02:45:24.625Z,73.10
2023-06-11T02:47:52.588Z,73.12
2023-06-11T02:50:20.603Z,72.54
2023-06-11T02:52:48.540Z,73.15
2023-06-11T02:55:16.351Z,73.04
2023-06-11T02:57:44.786Z,73.26
2023-06-11T03:00:12.940Z,73.12
2023-06-11T03:02:41.126Z,73.80
2023-06-11T03:05:09.873Z,73.94
2023-06-11T03:07:39.162Z,73.56
2023-06-11T03:10:08.819Z,73.61
2023-06-11T03:12:36.709Z,73.11
2023-06-11T03:15:05.351Z,73.53
2023-06-11T03:17:33.355Z,73.86
2023-06-11T03:20:01.907Z,74.02
2023-06-11T03:22:30.676Z,73.61
2023-06-11T03:24:58.378Z,73.38
2023-06-11T03:27:33.590Z,73.27
2023-06-11T03:30:01.473Z,73.70
2023-06-11T03:32:31.072Z,74.30
2023-06-11T03:34:58.892Z,73.72
2023-06-11T03:37:27.359Z,73.80
2023-06-11T03:39:58.442Z,73.93
2023-06-11T03:42:29.889Z,73.75
2023-06-11T03:44:57.855Z,74.63
2023-06-11T03:47:27.688Z,74.01
2023-06-11T03:49:55.748Z,73.89
2023-06-11T03:52:24.036Z,74.12
2023-06-11T03:54:52.346Z,73.45
2023-06-11T03:57:20.599Z,73.08
2023-06-11T03:59:49.087Z,73.86
2023-06-11T04:02:17.261Z,71.77
2023-06-11T04:04:47.284Z,72.14
2023-06-11T04:07:15.536Z,71.96
2023-06-11T04:09:43.247Z,71.82
2023-06-11T04:12:11.573Z,70.51
2023-06-11T04:14:39.362Z,70.63
2023-06-11T04:17:08.171Z,70.82
2023-06-11T04:19:36.021Z,70.32
2023-06-11T04:22:05.411Z,71.30
2023-06-11T04:24:33.189Z,70.40
2023-06-11T04:27:01.605Z,69.82
2023-06-11T04:29:30.634Z,68.69
2023-06-11T04:34:58.448Z,67.49
2023-06-11T04:37:31.270Z,67.83
2023-06-11T04:40:10.590Z,66.50
2023-06-11T04:42:42.158Z,67.36
2023-06-11T04:45:12.090Z,66.88
2023-06-11T04:47:41.938Z,66.78
2023-06-11T04:50:10.472Z,65.12
2023-06-11T04:52:44.004Z,64.21
2023-06-11T04:55:13.759Z,63.59
2023-06-11T04:57:43.066Z,61.45
2023-06-11T05:00:14.689Z,59.06
2023-06-11T05:02:47.453Z,58.65
2023-06-11T05:05:17.096Z,58.00
2023-06-11T05:07:44.926Z,59.04
2023-06-11T05:10:14.555Z,59.80
2023-06-11T05:12:42.538Z,59.70
2023-06-11T05:15:11.266Z,57.06
2023-06-11T05:17:40.731Z,54.85
2023-06-11T05:20:10.278Z,55.36
2023-06-11T05:22:38.908Z,56.64
2023-06-11T05:25:08.863Z,54.83
2023-06-11T05:27:37.339Z,51.79
2023-06-11T05:30:07.961Z,53.83
2023-06-11T05:32:37.882Z,55.27
2023-06-11T05:35:07.305Z,55.58
2023-06-11T05:37:37.277Z,53.50
2023-06-11T05:40:06.574Z,52.31
2023-06-11T05:42:35.254Z,52.56
2023-06-11T05:45:03.170Z,55.44
2023-06-11T05:47:31.589Z,53.53
2023-06-11T05:50:00.237Z,53.41
2023-06-11T05:52:28.861Z,54.24
2023-06-11T05:54:56.592Z,53.69
2023-06-11T05:57:26.054Z,50.23
2023-06-11T05:59:56.954Z,50.09
2023-06-11T06:02:28.516Z,50.37
2023-06-11T06:04:58.941Z,50.05
2023-06-11T06:07:27.081Z,51.48
2023-06-11T06:09:56.457Z,51.95
2023-06-11T06:12:24.963Z,50.44
2023-06-11T06:14:52.896Z,49.03
2023-06-11T06:17:21.570Z,49.29
2023-06-11T06:19:49.475Z,50.37
2023-06-11T06:22:19.687Z,51.28
2023-06-11T06:24:48.437Z,49.52
2023-06-11T06:27:16.836Z,50.15
2023-06-11T06:29:45.617Z,49.11
2023-06-11T06:32:13.542Z,48.36
2023-06-11T06:34:41.993Z,47.63
2023-06-11T06:37:12.822Z,49.43
2023-06-11T06:39:44.074Z,48.72
2023-06-11T06:42:12.288Z,49.20
2023-06-11T06:44:44.875Z,46.81
2023-06-11T06:47:16.246Z,46.79
2023-06-11T06:49:44.829Z,46.78
2023-06-11T06:52:13.435Z,46.49
2023-06-11T06:57:12.173Z,45.87
2023-06-11T06:59:40.078Z,46.72
2023-06-11T07:02:10.030Z,45.16
2023-06-11T07:04:39.035Z,44.87
2023-06-11T07:07:06.883Z,44.15
2023-06-11T07:09:35.458Z,44.54
2023-06-11T07:12:04.238Z,42.21
2023-06-11T07:14:33.013Z,43.41
2023-06-11T07:17:02.496Z,42.99
2023-06-11T07:19:30.218Z,42.71
2023-06-11T07:21:58.289Z,42.26
2023-06-11T07:24:26.940Z,42.92
2023-06-11T07:26:54.885Z,41.27
2023-06-11T07:29:23.059Z,38.55
2023-06-11T07:31:51.147Z,38.16
2023-06-11T07:34:20.727Z,39.15
2023-06-11T07:36:49.037Z,37.68
2023-06-11T07:39:16.753Z,36.70
2023-06-11T07:41:45.405Z,36.49
2023-06-11T07:44:13.252Z,37.19
2023-06-11T07:46:42.108Z,37.75
2023-06-11T07:49:09.953Z,37.23
2023-06-11T07:51:38.404Z,36.99
2023-06-11T07:54:09.105Z,35.02
2023-06-11T07:56:37.544Z,34.67
2023-06-11T07:59:05.367Z,36.62
2023-06-11T08:01:33.252Z,34.58
2023-06-11T08:04:00.943Z,37.19
2023-06-11T08:06:29.531Z,37.42
2023-06-11T08:08:58.030Z,35.76
2023-06-11T08:11:26.712Z,35.26
2023-06-11T08:13:54.389Z,36.76
2023-06-11T08:16:22.771Z,35.98
2023-06-11T08:18:50.545Z,36.15
2023-06-11T08:21:18.676Z,36.46
2023-06-11T08:23:47.074Z,37.23
2023-06-11T08:26:15.671Z,37.44
2023-06-11T08:28:43.445Z,36.62
2023-06-11T08:31:12.148Z,36.24
2023-06-11T08:33:39.885Z,37.39
2023-06-11T08:36:08.559Z,35.95
2023-06-11T08:38:38.786Z,35.43
2023-06-11T08:41:06.998Z,35.52
2023-06-11T08:43:34.865Z,35.67
2023-06-11T08:46:03.138Z,35.59
2023-06-11T08:48:33.908Z,34.93
2023-06-11T08:51:03.451Z,35.93
2023-06-11T08:53:31.441Z,37.53
2023-06-11T08:56:00.382Z,36.85
2023-06-11T08:58:28.826Z,38.29
2023-06-11T09:00:57.124Z,37.64
2023-06-11T09:03:25.014Z,40.69
2023-06-11T09:05:52.996Z,38.32
2023-06-11T09:08:20.855Z,39.36
2023-06-11T09:10:52.930Z,38.25
2023-06-11T09:13:25.634Z,38.82
2023-06-11T09:15:56.680Z,38.36
2023-06-11T09:18:26.159Z,39.87
2023-06-11T09:21:01.389Z,38.22
2023-06-11T09:23:31.890Z,37.65
2023-06-11T09:26:03.867Z,39.55
2023-06-11T09:28:33.583Z,39.22
2023-06-11T09:31:05.104Z,39.37
2023-06-11T09:33:34.016Z,37.65
2023-06-11T09:36:02.534Z,38.81
2023-06-11T09:38:34.986Z,37.78
2023-06-11T09:41:06.011Z,38.76
2023-06-11T09:43:35.408Z,37.86
2023-06-11T09:46:03.632Z,39.48
2023-06-11T09:48:31.644Z,37.93
2023-06-11T09:51:02.533Z,36.13
2023-06-11T09:53:34.763Z,37.56
2023-06-11T09:56:11.082Z,37.74
2023-06-11T09:58:40.872Z,37.39
2023-06-11T10:01:09.249Z,36.84
2023-06-11T10:03:37.131Z,36.99
2023-06-11T10:06:17.626Z,36.97
2023-06-11T10:08:47.021Z,36.50
2023-06-11T10:11:15.597Z,37.37
2023-06-11T10:13:44.342Z,36.33
2023-06-11T10:16:12.968Z,35.47
2023-06-11T10:18:40.704Z,35.85
2023-06-11T10:21:08.648Z,36.40
2023-06-11T10:23:38.380Z,36.67
2023-06-11T10:26:07.695Z,36.86
2023-06-11T10:28:42.334Z,36.66
2023-06-11T10:31:10.221Z,35.93
2023-06-11T10:33:44.674Z,35.45
2023-06-11T10:36:35.572Z,36.30
2023-06-11T10:39:06.967Z,36.87
2023-06-11T10:41:39.293Z,36.21
2023-06-11T10:44:07.946Z,37.11
2023-06-11T10:46:53.633Z,35.68
2023-06-11T10:49:27.219Z,34.78
2023-06-11T10:51:56.713Z,33.23
2023-06-11T10:54:28.653Z,34.34
2023-06-11T10:56:59.550Z,34.62
2023-06-11T10:59:27.322Z,35.21
2023-06-11T11:01:56.037Z,34.83
2023-06-11T11:04:24.125Z,37.11
2023-06-11T11:06:56.437Z,36.44
2023-06-11T11:09:24.468Z,34.04
2023-06-11T11:11:52.645Z,36.91
2023-06-11T11:14:20.415Z,36.33
2023-06-11T11:16:49.078Z,34.61
2023-06-11T11:19:17.056Z,35.40
2023-06-11T11:21:52.411Z,34.22
2023-06-11T11:24:20.422Z,34.55
2023-06-11T11:26:48.756Z,32.50
2023-06-11T11:29:16.535Z,34.38
2023-06-11T11:31:46.379Z,34.77
2023-06-11T11:34:14.196Z,34.73
2023-06-11T11:36:46.684Z,36.80
2023-06-11T11:39:16.259Z,34.96
2023-06-11T11:41:54.863Z,35.15
2023-06-11T11:44:23.490Z,35.80
2023-06-11T11:46:57.697Z,36.40
2023-06-11T11:49:33.519Z,36.06
2023-06-11T11:52:02.059Z,37.21
2023-06-11T11:54:29.850Z,37.64
2023-06-11T11:57:05.058Z,35.36
2023-06-11T11:59:41.078Z,37.64
2023-06-11T12:02:09.578Z,37.47
2023-06-11T12:04:43.843Z,37.42
2023-06-11T12:07:18.519Z,37.28
2023-06-11T12:09:46.237Z,35.45
2023-06-11T12:12:14.096Z,35.02
2023-06-11T12:14:41.874Z,37.06
2023-06-11T12:17:12.680Z,34.37
2023-06-11T12:19:41.228Z,36.38
2023-06-11T12:22:09.341Z,36.99
2023-06-11T12:24:37.832Z,37.85
2023-06-11T12:27:11.248Z,38.91
2023-06-11T12:29:40.182Z,38.23
2023-06-11T12:32:14.731Z,38.14
2023-06-11T12:34:42.456Z,36.21
2023-06-11T12:37:11.752Z,36.32
2023-06-11T12:39:39.463Z,35.74
2023-06-11T12:42:07.630Z,36.78
2023-06-11T12:44:35.772Z,36.60
2023-06-11T12:47:03.848Z,35.88
2023-06-11T12:49:32.818Z,37.03
2023-06-11T12:52:01.099Z,36.44
2023-06-11T12:54:28.959Z,37.49
2023-06-11T12:56:57.195Z,37.83
2023-06-11T12:59:24.968Z,37.67
2023-06-11T13:01:53.410Z,37.07
2023-06-11T13:04:21.300Z,39.47
2023-06-11T13:06:49.691Z,37.45
2023-06-11T13:09:17.504Z,36.15
2023-06-11T13:11:46.016Z,35.75
2023-06-11T13:14:18.953Z,35.96
2023-06-11T13:16:47.411Z,36.68
2023-06-11T13:19:15.269Z,36.32
2023-06-11T13:21:43.213Z,37.85
2023-06-11T13:24:10.811Z,38.46
2023-06-11T13:26:39.151Z,36.67
2023-06-11T13:29:07.239Z,37.70
2023-06-11T13:31:35.633Z,37.66
2023-06-11T13:34:03.592Z,36.24
2023-06-11T13:36:32.837Z,35.58
2023-06-11T13:39:00.551Z,35.72
2023-06-11T13:41:29.208Z,36.85
2023-06-11T13:43:56.937Z,35.71
2023-06-11T13:46:25.055Z,35.97
2023-06-11T13:48:52.711Z,35.96
2023-06-11T13:51:22.220Z,36.42
2023-06-11T13:53:50.797Z,36.60
2023-06-11T13:56:19.372Z,37.55
2023-06-11T13:58:47.390Z,37.03
2023-06-11T14:01:15.745Z,38.22
2023-06-11T14:03:43.612Z,36.81
2023-06-11T14:06:12.114Z,38.49
2023-06-11T14:08:39.970Z,38.28
2023-06-11T14:11:10.937Z,37.48
2023-06-11T14:13:38.540Z,38.53
2023-06-11T14:16:06.965Z,38.19
2023-06-11T14:18:34.761Z,38.17
2023-06-11T14:21:03.165Z,36.18
2023-06-11T14:23:30.925Z,36.11
2023-06-11T14:25:58.917Z,36.79
2023-06-11T14:28:26.637Z,37.10
2023-06-11T14:30:54.520Z,37.15
2023-06-11T14:33:22.330Z,36.96
2023-06-11T14:35:51.814Z,35.16
2023-06-11T14:38:19.611Z,35.35
2023-06-11T14:40:47.678Z,35.73
2023-06-11T14:43:15.565Z,36.26
2023-06-11T14:45:43.251Z,37.47
2023-06-11T14:48:11.011Z,37.52
2023-06-11T14:50:39.202Z,37.32
2023-06-11T14:53:09.157Z,38.39
2023-06-11T14:55:37.926Z,36.78
2023-06-11T14:58:05.609Z,37.14
2023-06-11T15:00:33.591Z,38.81
2023-06-11T15:03:01.793Z,37.11
2023-06-11T15:05:30.026Z,38.21
2023-06-11T15:07:57.639Z,37.48
2023-06-11T15:10:25.598Z,35.83
2023-06-11T15:12:53.879Z,35.93
2023-06-11T15:15:22.434Z,36.03
2023-06-11T15:17:50.226Z,37.01
2023-06-11T15:20:18.832Z,35.96
2023-06-11T15:22:46.472Z,36.04
2023-06-11T15:25:14.440Z,37.31
2023-06-11T15:27:42.912Z,35.55
2023-06-11T15:30:11.688Z,35.89
2023-06-11T15:32:40.208Z,36.51
2023-06-11T15:35:09.063Z,36.39
2023-06-11T15:37:37.014Z,36.62
2023-06-11T15:40:05.662Z,36.90
2023-06-11T15:42:33.431Z,37.67
2023-06-11T15:45:01.859Z,38.21
2023-06-11T15:47:30.867Z,37.95
2023-06-11T15:49:59.052Z,38.37
2023-06-11T15:52:26.834Z,39.32
2023-06-11T15:54:54.692Z,38.44
2023-06-11T15:57:22.972Z,39.55
2023-06-11T15:59:51.604Z,39.10
2023-06-11T16:02:19.406Z,39.08
2023-06-11T16:04:49.390Z,38.61
2023-06-11T16:07:17.669Z,38.53
2023-06-11T16:09:47.613Z,39.19
2023-06-11T16:12:16.102Z,36.37
2023-06-11T16:14:44.413Z,36.67
2023-06-11T16:17:12.785Z,37.22
2023-06-11T16:19:41.245Z,37.93
2023-06-11T16:22:12.157Z,36.33
2023-06-11T16:24:41.273Z,36.66
2023-06-11T16:27:08.725Z,37.86
2023-06-11T16:29:37.109Z,37.82
2023-06-11T16:32:05.500Z,38.18
2023-06-11T16:34:33.715Z,38.23
2023-06-11T16:37:01.649Z,38.39
2023-06-11T16:39:29.761Z,38.08
2023-06-11T16:41:58.862Z,38.43
2023-06-11T16:44:26.821Z,38.97
2023-06-11T16:46:54.677Z,38.22
2023-06-11T16:49:22.869Z,37.81
2023-06-11T16:51:50.853Z,36.28
2023-06-11T16:54:19.336Z,37.08
2023-06-11T16:56:47.552Z,37.41
2023-06-11T16:59:15.714Z,38.26
2023-06-11T17:01:43.784Z,39.61
2023-06-11T17:04:12.563Z,39.26
2023-06-11T17:06:41.316Z,39.76
2023-06-11T17:09:09.723Z,40.01
2023-06-11T17:11:37.662Z,40.33
2023-06-11T17:14:06.194Z,39.93
2023-06-11T17:16:34.199Z,40.30
2023-06-11T17:19:05.102Z,40.66
2023-06-11T17:21:35.334Z,39.86
2023-06-11T17:24:04.963Z,40.67
2023-06-11T17:26:34.697Z,40.71
2023-06-11T17:29:03.657Z,40.59
2023-06-11T17:31:31.694Z,39.61
2023-06-11T17:33:59.903Z,39.77
2023-06-11T17:36:27.747Z,40.75
2023-06-11T17:38:56.105Z,41.02
2023-06-11T17:41:25.160Z,41.01
2023-06-11T17:43:53.538Z,40.61
2023-06-11T17:46:21.985Z,41.00
2023-06-11T17:48:50.511Z,40.80
2023-06-11T17:51:18.147Z,41.52
2023-06-11T17:53:46.482Z,41.46
2023-06-11T17:56:14.781Z,41.71
2023-06-11T17:58:42.842Z,41.64
2023-06-11T18:01:11.266Z,41.98
2023-06-11T18:03:39.974Z,42.01
2023-06-11T18:06:07.973Z,42.55
2023-06-11T18:08:37.260Z,43.55
2023-06-11T18:11:05.231Z,44.03
2023-06-11T18:13:33.805Z,44.71
2023-06-11T18:16:02.714Z,45.24
2023-06-11T18:18:33.131Z,45.73
2023-06-11T18:21:00.912Z,46.27
2023-06-11T18:23:29.564Z,46.98
2023-06-11T18:25:58.066Z,47.66
2023-06-11T18:28:26.816Z,48.29
2023-06-11T18:30:55.416Z,48.80
2023-06-11T18:33:24.044Z,48.80
2023-06-11T18:35:52.079Z,49.40
2023-06-11T18:38:20.758Z,49.65
2023-06-11T18:40:49.164Z,50.38
2023-06-11T18:43:17.715Z,51.33
2023-06-11T18:45:46.597Z,51.77
2023-06-11T18:48:16.401Z,52.65
2023-06-11T18:50:44.765Z,52.73
2023-06-11T18:53:13.941Z,52.95
2023-06-11T18:55:42.724Z,53.76
2023-06-11T18:58:11.372Z,54.98
2023-06-11T19:00:39.069Z,55.75
2023-06-11T19:03:07.210Z,57.49
2023-06-11T19:05:35.508Z,57.75
2023-06-11T19:08:04.147Z,58.32
2023-06-11T19:10:32.184Z,58.93
2023-06-11T19:13:01.755Z,60.46
2023-06-11T19:15:29.831Z,61.62
2023-06-11T19:17:59.607Z,61.73
2023-06-11T19:20:31.253Z,63.01
2023-06-11T19:22:59.662Z,64.47
2023-06-11T19:25:27.592Z,66.53
2023-06-11T19:27:56.070Z,68.39
2023-06-11T19:30:25.086Z,69.22
2023-06-11T19:32:54.124Z,70.22
2023-06-11T19:35:22.014Z,70.44
2023-06-11T19:37:50.624Z,74.00
2023-06-11T19:40:18.401Z,73.83
2023-06-11T19:42:47.585Z,74.34
2023-06-11T19:45:19.213Z,75.51
2023-06-11T19:47:48.120Z,76.24
2023-06-11T19:50:16.483Z,78.49
2023-06-11T19:52:45.212Z,79.04
2023-06-11T19:55:18.398Z,80.10
2023-06-11T19:57:47.089Z,80.65
2023-06-11T20:00:16.291Z,82.74
2023-06-11T20:02:44.709Z,84.58
2023-06-11T20:05:13.210Z,85.06
2023-06-11T20:07:41.551Z,84.74
2023-06-11T20:10:09.970Z,85.38
2023-06-11T20:12:38.834Z,90.68
2023-06-11T20:15:07.263Z,91.80
2023-06-11T20:17:35.601Z,89.97
2023-06-11T20:20:04.072Z,88.21
2023-06-11T20:22:33.181Z,88.13
2023-06-11T20:25:01.250Z,88.88
2023-06-11T20:27:30.344Z,89.38
2023-06-11T20:29:58.256Z,90.51
2023-06-11T20:32:26.816Z,90.90
2023-06-11T20:34:54.716Z,91.96
2023-06-11T20:37:23.420Z,92.08
2023-06-11T20:39:51.865Z,92.86
2023-06-11T20:42:20.252Z,93.81
2023-06-11T20:44:48.279Z,93.56
2023-06-11T20:47:17.033Z,93.61
2023-06-11T20:49:44.939Z,93.54
2023-06-11T20:52:13.590Z,94.09
2023-06-11T20:54:41.503Z,94.80
2023-06-11T20:57:09.722Z,95.32
2023-06-11T20:59:37.553Z,96.15
2023-06-11T21:02:06.397Z,96.71
2023-06-11T21:04:36.686Z,97.87
2023-06-11T21:07:07.734Z,98.42
2023-06-11T21:09:35.760Z,99.32
2023-06-11T21:12:04.651Z,100.00
2023-06-11T21:14:32.515Z,100.00
2023-06-11T21:17:01.280Z,100.00
2023-06-11T21:19:29.073Z,100.00
2023-06-11T21:21:57.636Z,100.00
2023-06-11T21:24:25.589Z,100.00
2023-06-11T21:26:54.104Z,100.00
2023-06-11T21:29:22.064Z,100.00
2023-06-11T21:31:50.451Z,100.00
2023-06-11T21:34:18.161Z,100.00
2023-06-11T21:36:47.814Z,100.00
2023-06-11T21:39:16.325Z,100.00
2023-06-11T21:41:44.848Z,100.00
2023-06-11T21:44:14.537Z,100.00
2023-06-11T21:46:43.584Z,100.00
2023-06-11T21:49:11.485Z,100.00
2023-06-11T21:51:39.904Z,100.00
2023-06-11T21:54:07.682Z,100.00
2023-06-11T21:56:35.689Z,100.00
2023-06-11T21:59:03.476Z,100.00
2023-06-11T22:01:31.892Z,100.00
2023-06-11T22:03:59.816Z,100.00
2023-06-11T22:06:28.155Z,100.00
2023-06-11T22:08:55.951Z,100.00
2023-06-11T22:11:24.223Z,100.00
2023-06-11T22:13:51.790Z,100.00
2023-06-11T22:16:22.352Z,100.00
2023-06-11T22:18:52.766Z,100.00
2023-06-11T22:21:23.047Z,100.00
2023-06-11T22:23:52.309Z,100.00
2023-06-11T22:26:22.989Z,100.00
2023-06-11T22:28:52.170Z,100.00
2023-06-11T22:31:20.866Z,100.00
2023-06-11T22:33:48.889Z,100.00
2023-06-11T22:36:17.243Z,100.00
2023-06-11T22:38:45.321Z,100.00
2023-06-11T22:41:13.774Z,100.00
2023-06-11T22:43:41.681Z,100.00
2023-06-11T22:46:09.835Z,100.00
2023-06-11T22:48:37.822Z,99.02
2023-06-11T22:51:11.107Z,97.89
2023-06-11T22:53:39.018Z,97.41
2023-06-11T22:56:08.177Z,96.06
2023-06-11T22:58:36.296Z,97.75
2023-06-11T23:01:04.575Z,97.97
2023-06-11T23:03:32.458Z,97.77
2023-06-11T23:06:01.047Z,98.73
2023-06-11T23:08:29.401Z,99.24
2023-06-11T23:10:57.637Z,99.80
2023-06-11T23:13:25.484Z,100.00
2023-06-11T23:15:53.836Z,100.00
2023-06-11T23:18:25.370Z,100.00
2023-06-11T23:20:55.101Z,100.00
2023-06-11T23:23:23.744Z,100.00
2023-06-11T23:25:52.243Z,100.00
2023-06-11T23:28:24.072Z,100.00
2023-06-11T23:30:53.650Z,100.00
2023-06-11T23:33:21.502Z,100.00
2023-06-11T23:35:49.366Z,100.00
2023-06-11T23:38:17.502Z,100.00
2023-06-11T23:40:45.624Z,100.00
2023-06-11T23:43:13.511Z,100.00
2023-06-11T23:45:41.821Z,100.00
2023-06-11T23:48:09.624Z,100.00
2023-06-11T23:50:43.096Z,100.00
2023-06-11T23:53:11.305Z,100.00
2023-06-11T23:55:40.929Z,100.00
2023-06-11T23:58:23.364Z,100.00
